createdAt,value
2023-09-08T00:00:59.708Z,102029.86
2023-09-08T00:03:27.543Z,102021.64
2023-09-08T00:05:55.312Z,102017.35
2023-09-08T00:08:23.277Z,102004.80
2023-09-08T00:10:51.412Z,102001.17
2023-09-08T00:13:19.137Z,101992.55
2023-09-08T00:15:47.121Z,101984.79
2023-09-08T00:18:14.746Z,101983.94
2023-09-08T00:20:43.360Z,101978.80
2023-09-08T00:23:11.089Z,101976.42
2023-09-08T00:25:38.776Z,101974.54
2023-09-08T00:28:07.950Z,101971.59
2023-09-08T00:30:35.915Z,101971.41
2023-09-08T00:33:03.671Z,101966.11
2023-09-08T00:35:31.495Z,101961.65
2023-09-08T00:37:59.317Z,101959.77
2023-09-08T00:40:30.963Z,101958.19
2023-09-08T00:42:58.934Z,101955.73
2023-09-08T00:45:28.746Z,101950.34
2023-09-08T00:47:56.753Z,101951.16
2023-09-08T00:50:25.246Z,101955.09
2023-09-08T00:52:52.954Z,101954.88
2023-09-08T00:55:21.125Z,101951.77
2023-09-08T00:57:49.198Z,101946.43
2023-09-08T01:00:18.111Z,101947.27
2023-09-08T01:02:46.511Z,101941.55
2023-09-08T01:05:15.767Z,101941.91
2023-09-08T01:07:43.639Z,101934.21
2023-09-08T01:10:11.503Z,101929.24
2023-09-08T01:12:39.071Z,101926.31
2023-09-08T01:15:07.576Z,101922.31
2023-09-08T01:17:35.623Z,101916.64
2023-09-08T01:20:07.040Z,101910.10
2023-09-08T01:22:40.865Z,101905.95
2023-09-08T01:25:25.118Z,101907.77
2023-09-08T01:27:54.526Z,101904.06
2023-09-08T01:30:23.606Z,101901.08
2023-09-08T01:32:52.362Z,101902.77
2023-09-08T01:35:20.268Z,101902.59
2023-09-08T01:37:49.465Z,101896.41
2023-09-08T01:40:17.632Z,101896.08
2023-09-08T01:42:46.013Z,101894.88
2023-09-08T01:45:14.286Z,101894.34
2023-09-08T01:47:43.004Z,101892.95
2023-09-08T01:50:11.358Z,101888.27
2023-09-08T01:52:38.948Z,101887.90
2023-09-08T01:55:09.004Z,101887.69
2023-09-08T01:57:37.210Z,101882.67
2023-09-08T02:00:06.706Z,101881.27
2023-09-08T02:02:40.783Z,101880.21
2023-09-08T02:05:10.165Z,101877.11
2023-09-08T02:07:38.032Z,101874.70
2023-09-08T02:10:06.608Z,101871.40
2023-09-08T02:12:34.227Z,101869.96
2023-09-08T02:15:02.428Z,101869.42
2023-09-08T02:17:30.167Z,101865.45
2023-09-08T02:19:57.926Z,101864.88
2023-09-08T02:22:25.723Z,101863.68
2023-09-08T02:24:53.456Z,101862.61
2023-09-08T02:27:21.935Z,101861.80
2023-09-08T02:29:49.900Z,101855.14
2023-09-08T02:32:17.774Z,101853.77
2023-09-08T02:34:46.795Z,101849.42
2023-09-08T02:37:15.443Z,101846.23
2023-09-08T02:39:43.137Z,101844.70
2023-09-08T02:42:11.610Z,101846.57
2023-09-08T02:44:39.558Z,101850.29
2023-09-08T02:47:07.935Z,101850.74
2023-09-08T02:49:36.817Z,101843.98
2023-09-08T02:52:05.509Z,101841.48
2023-09-08T02:54:33.194Z,101844.17
2023-09-08T02:57:01.033Z,101842.06
2023-09-08T02:59:28.593Z,101840.48
2023-09-08T03:01:56.358Z,101837.34
2023-09-08T03:04:24.944Z,101836.94
2023-09-08T03:06:52.812Z,101835.67
2023-09-08T03:09:21.082Z,101833.94
2023-09-08T03:11:48.710Z,101831.33
2023-09-08T03:14:16.417Z,101832.84
2023-09-08T03:16:44.122Z,101829.55
2023-09-08T03:19:12.353Z,101832.92
2023-09-08T03:21:40.004Z,101831.02
2023-09-08T03:24:07.872Z,101828.92
2023-09-08T03:26:35.488Z,101829.10
2023-09-08T03:29:03.293Z,101829.38
2023-09-08T03:31:33.073Z,101824.83
2023-09-08T03:34:01.119Z,101824.33
2023-09-08T03:36:28.976Z,101824.52
2023-09-08T03:38:59.367Z,101819.05
2023-09-08T03:41:27.746Z,101819.07
2023-09-08T03:43:55.359Z,101814.64
2023-09-08T03:46:23.128Z,101814.36
2023-09-08T03:48:51.032Z,101810.48
2023-09-08T03:51:18.899Z,101812.78
2023-09-08T03:53:47.385Z,101810.13
2023-09-08T03:56:15.096Z,101808.68
2023-09-08T03:58:43.005Z,101802.61
2023-09-08T04:01:10.686Z,101801.86
2023-09-08T04:03:38.967Z,101803.90
2023-09-08T04:06:07.428Z,101801.50
2023-09-08T04:08:34.978Z,101799.29
2023-09-08T04:11:03.254Z,101800.67
2023-09-08T04:13:30.915Z,101795.71
2023-09-08T04:15:58.703Z,101793.66
2023-09-08T04:18:26.489Z,101794.20
2023-09-08T04:20:54.336Z,101796.98
2023-09-08T04:23:22.586Z,101799.44
2023-09-08T04:25:50.762Z,101807.40
2023-09-08T04:28:18.426Z,101813.80
2023-09-08T04:30:46.349Z,101819.02
2023-09-08T04:33:14.238Z,101829.70
2023-09-08T04:35:42.739Z,101840.54
2023-09-08T04:38:10.356Z,101854.45
2023-09-08T04:40:41.421Z,101870.41
2023-09-08T04:43:09.204Z,101897.95
2023-09-08T04:45:37.605Z,101926.56
2023-09-08T04:48:06.370Z,101970.33
2023-09-08T04:50:36.381Z,102028.40
2023-09-08T04:53:04.156Z,102093.39
2023-09-08T04:55:32.531Z,102155.23
2023-09-08T04:58:00.086Z,102194.64
2023-09-08T05:00:28.463Z,102192.44
2023-09-08T05:02:57.357Z,102149.83
2023-09-08T05:05:25.752Z,102080.39
2023-09-08T05:07:57.472Z,102000.77
2023-09-08T05:10:26.686Z,101918.17
2023-09-08T05:12:54.663Z,101831.11
2023-09-08T05:15:23.053Z,101751.80
2023-09-08T05:17:54.030Z,101666.98
2023-09-08T05:20:23.486Z,101576.45
2023-09-08T05:22:51.148Z,101520.48
2023-09-08T05:25:19.854Z,101485.39
2023-09-08T05:27:48.196Z,101453.43
2023-09-08T05:30:16.574Z,101449.27
2023-09-08T05:32:44.369Z,101436.29
2023-09-08T05:35:13.225Z,101426.41
2023-09-08T05:37:41.097Z,101441.22
2023-09-08T05:40:10.183Z,101431.31
2023-09-08T05:42:37.950Z,101408.27
2023-09-08T05:45:06.534Z,101391.44
2023-09-08T05:47:34.725Z,101398.62
2023-09-08T05:50:03.389Z,101395.61
2023-09-08T05:52:31.611Z,101407.29
2023-09-08T05:55:01.215Z,101403.77
2023-09-08T05:57:31.911Z,101376.17
2023-09-08T05:59:59.596Z,101367.09
2023-09-08T06:02:27.608Z,101359.04
2023-09-08T06:04:57.142Z,101348.16
2023-09-08T06:07:25.208Z,101321.53
2023-09-08T06:09:52.926Z,101301.14
2023-09-08T06:12:20.754Z,101286.30
2023-09-08T06:14:49.613Z,101265.59
2023-09-08T06:17:17.392Z,101257.43
2023-09-08T06:19:45.060Z,101245.98
2023-09-08T06:22:13.231Z,101237.08
2023-09-08T06:24:41.726Z,101232.02
2023-09-08T06:27:09.593Z,101232.88
2023-09-08T06:29:37.338Z,101233.70
2023-09-08T06:32:05.611Z,101235.02
2023-09-08T06:34:33.339Z,101236.52
2023-09-08T06:37:01.043Z,101237.84
2023-09-08T06:39:28.943Z,101239.70
2023-09-08T06:41:56.768Z,101243.50
2023-09-08T06:44:24.838Z,101261.47
2023-09-08T06:46:52.608Z,101289.40
2023-09-08T06:49:20.577Z,101312.52
2023-09-08T06:51:49.872Z,101332.95
2023-09-08T06:54:17.645Z,101343.59
2023-09-08T06:56:45.604Z,101359.79
2023-09-08T06:59:13.470Z,101365.44
2023-09-08T07:01:41.418Z,101367.95
2023-09-08T07:04:09.850Z,101389.91
2023-09-08T07:06:39.841Z,101425.52
2023-09-08T07:09:07.799Z,101452.67
2023-09-08T07:11:36.330Z,101481.27
2023-09-08T07:14:04.043Z,101505.02
2023-09-08T07:17:20.130Z,101511.23
2023-09-08T07:19:47.905Z,101518.30
2023-09-08T07:22:15.872Z,101528.83
2023-09-08T07:24:43.841Z,101518.58
2023-09-08T07:27:14.054Z,101492.77
2023-09-08T07:29:42.650Z,101499.80
2023-09-08T07:32:10.367Z,101478.50
2023-09-08T07:34:38.276Z,101406.67
2023-09-08T07:37:05.934Z,101383.94
2023-09-08T07:39:34.213Z,101398.62
2023-09-08T07:42:02.085Z,101382.85
2023-09-08T07:44:30.365Z,101423.89
2023-09-08T07:46:58.218Z,101479.21
2023-09-08T07:49:25.921Z,101533.98
2023-09-08T07:51:53.580Z,101561.39
2023-09-08T07:54:21.200Z,101546.15
2023-09-08T07:56:48.919Z,101527.15
2023-09-08T07:59:16.658Z,101344.32
2023-09-08T08:01:44.337Z,101430.44
2023-09-08T08:04:12.100Z,101167.12
2023-09-08T08:06:40.033Z,101018.89
2023-09-08T08:09:07.925Z,101115.46
2023-09-08T08:11:36.201Z,101165.60
2023-09-08T08:14:03.925Z,101159.06
2023-09-08T08:16:31.684Z,100936.56
2023-09-08T08:19:00.554Z,100878.55
2023-09-08T08:21:28.492Z,100839.98
2023-09-08T08:23:56.310Z,100779.51
2023-09-08T08:26:28.996Z,100666.68
2023-09-08T08:28:56.652Z,100555.73
2023-09-08T08:31:25.732Z,100427.48
2023-09-08T08:33:53.515Z,100335.67
2023-09-08T08:36:21.414Z,100393.29
2023-09-08T08:38:49.753Z,100332.25
2023-09-08T08:41:17.328Z,100214.38
2023-09-08T08:43:46.305Z,100233.55
2023-09-08T08:46:14.001Z,100330.66
2023-09-08T08:48:41.734Z,100301.39
2023-09-08T08:51:09.832Z,100332.74
2023-09-08T08:53:37.570Z,100286.33
2023-09-08T08:56:07.560Z,100291.95
2023-09-08T08:58:35.609Z,100168.45
2023-09-08T09:01:03.562Z,100202.69
2023-09-08T09:03:31.346Z,100111.38
2023-09-08T09:06:00.472Z,99994.42
2023-09-08T09:08:28.444Z,100034.59
2023-09-08T09:10:56.210Z,100038.55
2023-09-08T09:13:24.100Z,100121.27
2023-09-08T09:15:51.871Z,100179.17
2023-09-08T09:18:19.580Z,100032.03
2023-09-08T09:20:55.453Z,99999.66
2023-09-08T09:23:32.946Z,99941.01
2023-09-08T09:26:02.605Z,99912.41
2023-09-08T09:28:30.562Z,99777.42
2023-09-08T09:30:59.817Z,99754.61
2023-09-08T09:33:27.502Z,99740.57
2023-09-08T09:35:55.654Z,99647.33
2023-09-08T09:38:23.364Z,99656.73
2023-09-08T09:40:51.082Z,99758.03
2023-09-08T09:43:21.989Z,99620.70
2023-09-08T09:45:49.792Z,99597.14
2023-09-08T09:48:18.376Z,99392.00
2023-09-08T09:50:46.025Z,99573.73
2023-09-08T09:53:14.952Z,99663.35
2023-09-08T09:55:44.124Z,99797.81
2023-09-08T09:58:12.208Z,100003.50
2023-09-08T10:00:42.603Z,99986.30
2023-09-08T10:03:10.769Z,99958.57
2023-09-08T10:05:38.754Z,99857.52
2023-09-08T10:08:07.175Z,99937.92
2023-09-08T10:10:38.281Z,99821.02
2023-09-08T10:13:07.774Z,99807.36
2023-09-08T10:15:35.647Z,99707.50
2023-09-08T10:18:06.114Z,99500.34
2023-09-08T10:20:34.595Z,99478.45
2023-09-08T10:23:12.139Z,99338.61
2023-09-08T10:25:44.728Z,99445.03
2023-09-08T10:28:14.523Z,99445.05
2023-09-08T10:30:43.047Z,99311.53
2023-09-08T10:33:10.967Z,99353.58
2023-09-08T10:35:40.174Z,99228.31
2023-09-08T10:38:27.889Z,99327.48
2023-09-08T10:41:18.538Z,99302.29
2023-09-08T10:44:02.526Z,99266.70
2023-09-08T10:46:31.962Z,99565.16
2023-09-08T10:49:05.086Z,99989.31
2023-09-08T10:51:32.907Z,100122.38
2023-09-08T10:54:00.577Z,100306.77
2023-09-08T10:56:30.614Z,100196.85
2023-09-08T10:59:00.522Z,100279.77
2023-09-08T11:01:29.048Z,100359.70
2023-09-08T11:03:57.304Z,100474.27
2023-09-08T11:06:25.218Z,100453.06
2023-09-08T11:08:54.621Z,100478.80
2023-09-08T11:11:22.393Z,100382.38
2023-09-08T11:13:50.262Z,100356.72
2023-09-08T11:16:22.866Z,100368.46
2023-09-08T11:18:52.430Z,100406.20
2023-09-08T11:21:20.711Z,100361.48
2023-09-08T11:23:48.430Z,100458.02
2023-09-08T11:26:16.665Z,100617.16
2023-09-08T11:28:44.445Z,100580.21
2023-09-08T11:31:13.688Z,100727.20
2023-09-08T11:33:41.632Z,100808.92
2023-09-08T11:36:16.793Z,100755.05
2023-09-08T11:38:45.702Z,100763.67
2023-09-08T11:41:13.988Z,100732.56
2023-09-08T11:43:41.840Z,100653.80
2023-09-08T11:46:12.025Z,100699.29
2023-09-08T11:48:40.034Z,100804.91
2023-09-08T11:51:09.331Z,100822.48
2023-09-08T11:53:36.895Z,100772.41
2023-09-08T11:56:04.754Z,100853.42
2023-09-08T11:58:32.481Z,100922.77
2023-09-08T12:01:00.212Z,100879.98
2023-09-08T12:03:27.999Z,100929.42
2023-09-08T12:05:56.422Z,100862.73
2023-09-08T12:08:26.541Z,100761.42
2023-09-08T12:10:54.921Z,100725.64
2023-09-08T12:13:23.909Z,100845.11
2023-09-08T12:15:52.349Z,100840.70
2023-09-08T12:18:20.095Z,100745.45
2023-09-08T12:20:48.943Z,100762.56
2023-09-08T12:23:23.293Z,100835.15
2023-09-08T12:25:52.567Z,100843.98
2023-09-08T12:28:21.998Z,100946.95
2023-09-08T12:30:56.703Z,100868.92
2023-09-08T12:33:24.347Z,100756.37
2023-09-08T12:35:54.504Z,100805.25
2023-09-08T12:38:22.136Z,100880.41
2023-09-08T12:40:49.790Z,100960.61
2023-09-08T12:43:22.845Z,100968.64
2023-09-08T12:45:57.825Z,100991.81
2023-09-08T12:48:25.883Z,100942.17
2023-09-08T12:50:53.612Z,101039.20
2023-09-08T12:53:21.970Z,100971.73
2023-09-08T12:55:50.090Z,101044.26
2023-09-08T12:58:18.278Z,101100.36
2023-09-08T13:00:46.743Z,101124.85
2023-09-08T13:03:14.433Z,101076.67
2023-09-08T13:05:42.569Z,101017.90
2023-09-08T13:08:10.753Z,100978.71
2023-09-08T13:10:39.294Z,101122.04
2023-09-08T13:13:07.020Z,101152.95
2023-09-08T13:15:34.886Z,101207.92
2023-09-08T13:18:02.793Z,101120.92
2023-09-08T13:20:31.871Z,101184.26
2023-09-08T13:22:59.641Z,101258.63
2023-09-08T13:25:27.495Z,101326.44
2023-09-08T13:27:55.790Z,101309.02
2023-09-08T13:30:27.925Z,101306.83
2023-09-08T13:32:57.437Z,101191.15
2023-09-08T13:35:25.601Z,101108.66
2023-09-08T13:37:53.247Z,101033.45
2023-09-08T13:40:21.102Z,101119.41
2023-09-08T13:42:49.385Z,101081.40
2023-09-08T13:45:17.217Z,101141.78
2023-09-08T13:47:45.652Z,101107.45
2023-09-08T13:50:14.431Z,101150.50
2023-09-08T13:52:43.665Z,101165.66
2023-09-08T13:55:34.929Z,101129.74
2023-09-08T13:58:01.811Z,101062.63
2023-09-08T14:00:31.919Z,101095.07
2023-09-08T14:03:05.676Z,101109.36
2023-09-08T14:05:37.920Z,101083.16
2023-09-08T14:08:16.414Z,101089.67
2023-09-08T14:13:16.629Z,101068.58
2023-09-08T14:15:44.776Z,101125.61
2023-09-08T14:18:12.693Z,101069.00
2023-09-08T14:20:42.045Z,101095.13
2023-09-08T14:23:10.050Z,101049.35
2023-09-08T14:25:37.982Z,101086.72
2023-09-08T14:28:07.160Z,101156.88
2023-09-08T14:30:37.197Z,101214.75
2023-09-08T14:33:05.177Z,101128.72
2023-09-08T14:35:33.804Z,101078.15
2023-09-08T14:38:02.032Z,101003.87
2023-09-08T14:40:29.682Z,101042.06
2023-09-08T14:42:57.236Z,101068.96
2023-09-08T14:45:27.905Z,101178.77
2023-09-08T14:47:55.593Z,101183.04
2023-09-08T14:50:23.449Z,101353.86
2023-09-08T14:52:51.158Z,101586.38
2023-09-08T14:55:19.946Z,101281.23
2023-09-08T14:57:47.623Z,101201.28
2023-09-08T15:00:15.901Z,101173.36
2023-09-08T15:02:43.744Z,101129.41
2023-09-08T15:05:11.511Z,101189.77
2023-09-08T15:07:39.887Z,101127.06
2023-09-08T15:10:07.655Z,101123.51
2023-09-08T15:12:35.315Z,101101.42
2023-09-08T15:15:03.694Z,101132.15
2023-09-08T15:17:31.877Z,101090.20
2023-09-08T15:20:01.076Z,101057.15
2023-09-08T15:22:28.826Z,100998.36
2023-09-08T15:24:56.504Z,100992.21
2023-09-08T15:27:24.147Z,100955.80
2023-09-08T15:29:51.709Z,100982.16
2023-09-08T15:32:19.365Z,101014.07
2023-09-08T15:34:51.246Z,101007.21
2023-09-08T15:37:19.331Z,101045.13
2023-09-08T15:39:47.711Z,101044.70
2023-09-08T15:42:15.495Z,101048.88
2023-09-08T15:44:43.311Z,101076.02
2023-09-08T15:47:10.964Z,101064.00
2023-09-08T15:49:38.658Z,101084.73
2023-09-08T15:52:15.870Z,101086.48
2023-09-08T15:54:44.638Z,101089.40
2023-09-08T15:57:12.464Z,101089.11
2023-09-08T15:59:41.194Z,101084.08
2023-09-08T16:02:09.187Z,101074.02
2023-09-08T16:04:37.177Z,101068.46
2023-09-08T16:07:05.666Z,101063.09
2023-09-08T16:09:33.336Z,101054.83
2023-09-08T16:12:00.993Z,101051.34
2023-09-08T16:14:28.667Z,101045.61
2023-09-08T16:16:56.970Z,101033.67
2023-09-08T16:19:24.905Z,101023.80
2023-09-08T16:21:52.872Z,101009.00
2023-09-08T16:24:20.535Z,100999.38
2023-09-08T16:26:48.498Z,100993.21
2023-09-08T16:29:16.272Z,100977.84
2023-09-08T16:31:43.949Z,100972.45
2023-09-08T16:34:12.134Z,100982.27
2023-09-08T16:36:40.271Z,100977.45
2023-09-08T16:39:07.948Z,100967.67
2023-09-08T16:41:35.585Z,100961.58
2023-09-08T16:44:03.246Z,100950.77
2023-09-08T16:46:30.904Z,100942.99
2023-09-08T16:48:58.564Z,100938.15
2023-09-08T16:51:26.127Z,100936.81
2023-09-08T16:53:53.742Z,100946.16
2023-09-08T16:56:21.855Z,100942.92
2023-09-08T16:58:51.169Z,100929.16
2023-09-08T17:01:19.354Z,100919.48
2023-09-08T17:03:47.163Z,100913.98
2023-09-08T17:06:14.960Z,100906.05
2023-09-08T17:08:42.627Z,100882.70
2023-09-08T17:11:11.820Z,100870.55
2023-09-08T17:13:39.783Z,100874.77
2023-09-08T17:16:07.699Z,100864.33
2023-09-08T17:18:36.090Z,100855.95
2023-09-08T17:21:04.622Z,100853.10
2023-09-08T17:23:32.372Z,100836.45
2023-09-08T17:26:02.299Z,100824.02
2023-09-08T17:28:30.052Z,100810.92
2023-09-08T17:30:58.224Z,100793.10
2023-09-08T17:33:25.886Z,100769.54
2023-09-08T17:35:53.711Z,100733.11
2023-09-08T17:38:21.280Z,100707.60
2023-09-08T17:40:48.770Z,100702.70
2023-09-08T17:43:16.771Z,100722.39
2023-09-08T17:45:45.323Z,100765.05
2023-09-08T17:48:13.439Z,100783.55
2023-09-08T17:50:40.988Z,100768.37
2023-09-08T17:53:09.365Z,100727.05
2023-09-08T17:55:37.532Z,100700.09
2023-09-08T17:58:05.572Z,100687.98
2023-09-08T18:03:47.582Z,100638.98
2023-09-08T18:06:16.076Z,100643.91
2023-09-08T18:08:44.893Z,100645.24
2023-09-08T18:11:12.938Z,100649.03
2023-09-08T18:13:40.775Z,100648.63
2023-09-08T18:16:09.440Z,100660.58
2023-09-08T18:18:37.238Z,100679.75
2023-09-08T18:21:04.806Z,100687.97
2023-09-08T18:23:32.573Z,100700.64
2023-09-08T18:26:00.384Z,100724.27
2023-09-08T18:28:28.646Z,100755.14
2023-09-08T18:30:56.576Z,100808.00
2023-09-08T18:33:24.297Z,100888.95
2023-09-08T18:35:52.401Z,100968.13
2023-09-08T18:38:20.227Z,101039.15
2023-09-08T18:40:48.655Z,101111.86
2023-09-08T18:43:16.411Z,101182.30
2023-09-08T18:45:44.229Z,101238.73
2023-09-08T18:48:12.332Z,101304.63
2023-09-08T18:50:41.344Z,101386.44
2023-09-08T18:53:10.533Z,101453.67
2023-09-08T18:55:38.150Z,101491.45
2023-09-08T18:58:06.779Z,101524.20
2023-09-08T19:00:34.670Z,101536.73
2023-09-08T19:03:03.577Z,101545.11
2023-09-08T19:05:31.708Z,101543.44
2023-09-08T19:07:59.672Z,101538.30
2023-09-08T19:10:27.440Z,101539.05
2023-09-08T19:12:55.012Z,101534.92
2023-09-08T19:15:22.655Z,101543.26
2023-09-08T19:17:52.418Z,101544.83
2023-09-08T19:20:20.230Z,101540.64
2023-09-08T19:22:47.999Z,101532.48
2023-09-08T19:25:15.687Z,101521.70
2023-09-08T19:27:43.470Z,101511.46
2023-09-08T19:30:12.152Z,101498.99
2023-09-08T19:35:12.728Z,101523.48
2023-09-08T19:37:40.733Z,101483.50
2023-09-08T19:40:08.943Z,101470.48
2023-09-08T19:42:36.963Z,101461.60
2023-09-08T19:45:05.457Z,101449.13
2023-09-08T19:47:33.316Z,101446.52
2023-09-08T19:50:01.409Z,101438.40
2023-09-08T19:52:29.041Z,101433.23
2023-09-08T19:54:56.698Z,101426.15
2023-09-08T19:57:24.464Z,101419.95
2023-09-08T19:59:52.023Z,101416.02
2023-09-08T20:02:19.912Z,101404.61
2023-09-08T20:04:47.698Z,101395.32
2023-09-08T20:07:15.725Z,101387.59
2023-09-08T20:09:43.382Z,101391.10
2023-09-08T20:12:11.045Z,101386.14
2023-09-08T20:14:38.630Z,101381.88
2023-09-08T20:17:06.361Z,101387.48
2023-09-08T20:19:34.174Z,101386.73
2023-09-08T20:22:02.717Z,101394.94
2023-09-08T20:24:31.096Z,101398.47
2023-09-08T20:26:58.765Z,101398.54
2023-09-08T20:29:29.598Z,101397.92
2023-09-08T20:31:58.749Z,101399.71
2023-09-08T20:34:26.857Z,101391.11
2023-09-08T20:36:56.087Z,101385.44
2023-09-08T20:39:24.007Z,101380.10
2023-09-08T20:41:51.921Z,101373.89
2023-09-08T20:44:19.652Z,101363.55
2023-09-08T20:46:47.854Z,101355.59
2023-09-08T20:49:15.592Z,101353.00
2023-09-08T20:51:43.352Z,101351.29
2023-09-08T20:54:11.037Z,101343.50
2023-09-08T20:56:39.864Z,101336.08
2023-09-08T20:59:07.466Z,101336.06
2023-09-08T21:01:35.458Z,101327.95
2023-09-08T21:04:03.101Z,101326.39
2023-09-08T21:06:31.162Z,101318.78
2023-09-08T21:08:58.833Z,101312.22
2023-09-08T21:11:26.894Z,101312.58
2023-09-08T21:13:54.560Z,101311.89
2023-09-08T21:16:22.883Z,101302.19
2023-09-08T21:18:50.593Z,101296.47
2023-09-08T21:21:18.251Z,101291.30
2023-09-08T21:23:45.810Z,101288.89
2023-09-08T21:26:14.059Z,101288.39
2023-09-08T21:28:41.750Z,101285.84
2023-09-08T21:31:10.108Z,101282.38
2023-09-08T21:33:38.896Z,101274.42
2023-09-08T21:36:07.903Z,101272.02
2023-09-08T21:38:35.985Z,101267.73
2023-09-08T21:41:08.658Z,101263.95
2023-09-08T21:43:37.412Z,101260.16
2023-09-08T21:46:06.058Z,101250.67
2023-09-08T21:48:34.314Z,101241.17
2023-09-08T21:51:02.362Z,101237.56
2023-09-08T21:53:30.136Z,101228.06
2023-09-08T21:55:57.699Z,101218.21
2023-09-08T21:58:25.355Z,101204.56
2023-09-08T22:00:53.149Z,101200.61
2023-09-08T22:03:21.373Z,101193.02
2023-09-08T22:05:49.900Z,101189.63
2023-09-08T22:08:17.536Z,101190.36
2023-09-08T22:10:45.812Z,101189.59
2023-09-08T22:13:13.474Z,101185.14
2023-09-08T22:15:42.026Z,101182.41
2023-09-08T22:18:10.372Z,101177.80
2023-09-08T22:20:38.508Z,101172.80
2023-09-08T22:23:06.173Z,101161.75
2023-09-08T22:25:35.026Z,101155.05
2023-09-08T22:28:02.719Z,101147.13
2023-09-08T22:30:30.997Z,101142.99
2023-09-08T22:32:58.734Z,101136.80
2023-09-08T22:35:26.515Z,101128.33
2023-09-08T22:37:54.179Z,101122.10
2023-09-08T22:40:22.453Z,101114.30
2023-09-08T22:42:52.003Z,101099.62
2023-09-08T22:45:19.915Z,101096.54
2023-09-08T22:47:47.761Z,101095.36
2023-09-08T22:50:15.454Z,101085.71
2023-09-08T22:52:43.115Z,101085.38
2023-09-08T22:55:24.290Z,101081.77
2023-09-08T22:57:54.717Z,101079.04
2023-09-08T23:00:23.678Z,101073.16
2023-09-08T23:02:51.802Z,101070.36
2023-09-08T23:05:19.658Z,101061.69
2023-09-08T23:07:47.763Z,101050.42
2023-09-08T23:10:15.486Z,101047.45
2023-09-08T23:12:43.164Z,101041.04
2023-09-08T23:15:11.411Z,101036.70
2023-09-08T23:17:39.650Z,101031.31
2023-09-08T23:20:26.614Z,101020.17
2023-09-08T23:22:54.476Z,101013.46
2023-09-08T23:25:22.237Z,101007.23
2023-09-08T23:27:49.795Z,101002.24
2023-09-08T23:30:17.458Z,101007.58
2023-09-08T23:32:46.367Z,101015.86
2023-09-08T23:35:14.850Z,101032.98
2023-09-08T23:37:43.317Z,101051.94
2023-09-08T23:40:13.009Z,101079.01
2023-09-08T23:42:40.685Z,101118.35
2023-09-08T23:45:08.845Z,101163.84
2023-09-08T23:47:36.536Z,101210.19
2023-09-08T23:50:04.726Z,101259.33
2023-09-08T23:52:32.380Z,101308.10
2023-09-08T23:55:00.012Z,101334.27
2023-09-08T23:57:27.989Z,101350.78
2023-09-08T23:59:55.881Z,101351.07
